sensor_id;sensor_type;location;lat;lon;timestamp;P1;durP1;ratioP1;P2;durP2;ratioP2
9783;SDS011;4931;44.874;-1.092;2022-11-20T00:03:10;28.15;;;14.48;;
9783;SDS011;4931;44.874;-1.092;2022-11-20T00:07:55;23.38;;;11.95;;
9783;SDS011;4931;44.874;-1.092;2022-11-20T00:12:41;19.10;;;9.50;;
9783;SDS011;4931;44.874;-1.092;2022-11-20T00:17:27;26.23;;;10.65;;
9783;SDS011;4931;44.874;-1.092;2022-11-20T00:22:15;22.55;;;9.55;;
9783;SDS011;4931;44.874;-1.092;2022-11-20T00:27:01;26.80;;;12.38;;
9783;SDS011;4931;44.874;-1.092;2022-11-20T00:31:46;21.27;;;9.65;;
9783;SDS011;4931;44.874;-1.092;2022-11-20T00:36:32;22.88;;;10.55;;
9783;SDS011;4931;44.874;-1.092;2022-11-20T00:41:22;24.48;;;10.38;;
9783;SDS011;4931;44.874;-1.092;2022-11-20T00:46:10;16.67;;;8.00;;
9783;SDS011;4931;44.874;-1.092;2022-11-20T00:50:57;17.65;;;8.55;;
9783;SDS011;4931;44.874;-1.092;2022-11-20T00:55:43;17.05;;;8.32;;
9783;SDS011;4931;44.874;-1.092;2022-11-20T01:00:39;15.52;;;7.57;;
9783;SDS011;4931;44.874;-1.092;2022-11-20T01:05:24;15.43;;;6.95;;
9783;SDS011;4931;44.874;-1.092;2022-11-20T01:10:09;18.10;;;7.57;;
9783;SDS011;4931;44.874;-1.092;2022-11-20T01:14:54;16.25;;;6.13;;
9783;SDS011;4931;44.874;-1.092;2022-11-20T01:19:42;15.82;;;6.40;;
9783;SDS011;4931;44.874;-1.092;2022-11-20T01:24:28;21.60;;;8.57;;
9783;SDS011;4931;44.874;-1.092;2022-11-20T01:29:14;22.73;;;7.45;;
9783;SDS011;4931;44.874;-1.092;2022-11-20T01:34:02;14.40;;;6.03;;
9783;SDS011;4931;44.874;-1.092;2022-11-20T01:38:53;13.05;;;5.00;;
9783;SDS011;4931;44.874;-1.092;2022-11-20T01:43:39;11.60;;;5.00;;
9783;SDS011;4931;44.874;-1.092;2022-11-20T01:48:25;18.48;;;5.50;;
9783;SDS011;4931;44.874;-1.092;2022-11-20T01:53:14;15.48;;;7.03;;
9783;SDS011;4931;44.874;-1.092;2022-11-20T01:58:05;21.15;;;6.88;;
9783;SDS011;4931;44.874;-1.092;2022-11-20T02:02:51;18.38;;;7.47;;
9783;SDS011;4931;44.874;-1.092;2022-11-20T02:07:41;14.93;;;5.35;;
9783;SDS011;4931;44.874;-1.092;2022-11-20T02:12:26;12.13;;;5.18;;
9783;SDS011;4931;44.874;-1.092;2022-11-20T02:17:27;13.70;;;5.60;;
9783;SDS011;4931;44.874;-1.092;2022-11-20T02:22:13;10.55;;;4.60;;
9783;SDS011;4931;44.874;-1.092;2022-11-20T02:27:06;12.85;;;4.90;;
9783;SDS011;4931;44.874;-1.092;2022-11-20T02:31:54;18.52;;;5.00;;
9783;SDS011;4931;44.874;-1.092;2022-11-20T02:36:42;13.02;;;4.57;;
9783;SDS011;4931;44.874;-1.092;2022-11-20T02:41:32;13.77;;;5.00;;
9783;SDS011;4931;44.874;-1.092;2022-11-20T02:46:21;10.95;;;4.50;;
9783;SDS011;4931;44.874;-1.092;2022-11-20T02:51:07;14.00;;;4.75;;
9783;SDS011;4931;44.874;-1.092;2022-11-20T02:55:52;11.68;;;4.45;;
9783;SDS011;4931;44.874;-1.092;2022-11-20T03:00:37;12.00;;;5.03;;
9783;SDS011;4931;44.874;-1.092;2022-11-20T03:05:25;10.75;;;4.43;;
9783;SDS011;4931;44.874;-1.092;2022-11-20T03:10:10;16.45;;;4.80;;
9783;SDS011;4931;44.874;-1.092;2022-11-20T03:14:56;12.27;;;4.32;;
9783;SDS011;4931;44.874;-1.092;2022-11-20T03:19:41;9.93;;;3.70;;
9783;SDS011;4931;44.874;-1.092;2022-11-20T03:24:29;15.18;;;3.70;;
9783;SDS011;4931;44.874;-1.092;2022-11-20T03:29:14;13.07;;;4.38;;
9783;SDS011;4931;44.874;-1.092;2022-11-20T03:34:00;12.52;;;3.92;;
9783;SDS011;4931;44.874;-1.092;2022-11-20T03:38:46;11.07;;;3.40;;
9783;SDS011;4931;44.874;-1.092;2022-11-20T03:43:34;15.20;;;3.70;;
9783;SDS011;4931;44.874;-1.092;2022-11-20T03:48:19;10.07;;;3.47;;
9783;SDS011;4931;44.874;-1.092;2022-11-20T03:53:05;12.85;;;4.03;;
9783;SDS011;4931;44.874;-1.092;2022-11-20T03:57:50;11.80;;;3.70;;
9783;SDS011;4931;44.874;-1.092;2022-11-20T04:02:38;14.63;;;4.15;;
9783;SDS011;4931;44.874;-1.092;2022-11-20T04:07:23;9.93;;;4.10;;
9783;SDS011;4931;44.874;-1.092;2022-11-20T04:12:08;14.02;;;3.90;;
9783;SDS011;4931;44.874;-1.092;2022-11-20T04:16:53;12.93;;;3.75;;
9783;SDS011;4931;44.874;-1.092;2022-11-20T04:21:41;12.82;;;3.92;;
9783;SDS011;4931;44.874;-1.092;2022-11-20T04:26:27;11.85;;;3.75;;
9783;SDS011;4931;44.874;-1.092;2022-11-20T04:31:13;11.68;;;3.60;;
9783;SDS011;4931;44.874;-1.092;2022-11-20T04:36:00;15.15;;;3.67;;
9783;SDS011;4931;44.874;-1.092;2022-11-20T04:40:49;12.65;;;3.35;;
9783;SDS011;4931;44.874;-1.092;2022-11-20T04:45:34;11.63;;;3.25;;
9783;SDS011;4931;44.874;-1.092;2022-11-20T04:50:20;10.05;;;3.05;;
9783;SDS011;4931;44.874;-1.092;2022-11-20T04:55:05;9.25;;;3.22;;
9783;SDS011;4931;44.874;-1.092;2022-11-20T04:59:54;11.68;;;3.00;;
9783;SDS011;4931;44.874;-1.092;2022-11-20T05:04:39;11.48;;;2.80;;
9783;SDS011;4931;44.874;-1.092;2022-11-20T05:09:24;11.07;;;2.53;;
9783;SDS011;4931;44.874;-1.092;2022-11-20T05:14:10;11.07;;;2.90;;
9783;SDS011;4931;44.874;-1.092;2022-11-20T05:18:57;11.35;;;3.00;;
9783;SDS011;4931;44.874;-1.092;2022-11-20T05:23:43;10.20;;;2.70;;
9783;SDS011;4931;44.874;-1.092;2022-11-20T05:28:30;8.32;;;2.60;;
9783;SDS011;4931;44.874;-1.092;2022-11-20T05:33:16;12.00;;;2.90;;
9783;SDS011;4931;44.874;-1.092;2022-11-20T05:38:04;14.05;;;2.60;;
9783;SDS011;4931;44.874;-1.092;2022-11-20T05:42:49;7.93;;;2.55;;
9783;SDS011;4931;44.874;-1.092;2022-11-20T05:47:34;10.90;;;3.08;;
9783;SDS011;4931;44.874;-1.092;2022-11-20T05:52:19;15.25;;;3.08;;
9783;SDS011;4931;44.874;-1.092;2022-11-20T05:57:07;11.63;;;2.78;;
9783;SDS011;4931;44.874;-1.092;2022-11-20T06:01:53;8.98;;;2.72;;
9783;SDS011;4931;44.874;-1.092;2022-11-20T06:06:38;6.32;;;2.58;;
9783;SDS011;4931;44.874;-1.092;2022-11-20T06:11:23;9.73;;;2.40;;
9783;SDS011;4931;44.874;-1.092;2022-11-20T06:16:11;10.15;;;2.95;;
9783;SDS011;4931;44.874;-1.092;2022-11-20T06:20:59;50.78;;;21.05;;
9783;SDS011;4931;44.874;-1.092;2022-11-20T06:25:45;15.57;;;6.63;;
9783;SDS011;4931;44.874;-1.092;2022-11-20T06:30:30;15.93;;;7.70;;
9783;SDS011;4931;44.874;-1.092;2022-11-20T06:35:18;12.13;;;4.47;;
9783;SDS011;4931;44.874;-1.092;2022-11-20T06:40:04;8.70;;;3.28;;
9783;SDS011;4931;44.874;-1.092;2022-11-20T06:44:50;12.07;;;4.93;;
9783;SDS011;4931;44.874;-1.092;2022-11-20T06:49:35;11.68;;;6.70;;
9783;SDS011;4931;44.874;-1.092;2022-11-20T06:54:24;14.27;;;5.47;;
9783;SDS011;4931;44.874;-1.092;2022-11-20T06:59:09;8.23;;;3.63;;
9783;SDS011;4931;44.874;-1.092;2022-11-20T07:03:54;9.63;;;3.50;;
9783;SDS011;4931;44.874;-1.092;2022-11-20T07:08:39;17.55;;;6.30;;
9783;SDS011;4931;44.874;-1.092;2022-11-20T07:13:28;10.45;;;5.18;;
9783;SDS011;4931;44.874;-1.092;2022-11-20T07:18:13;9.32;;;2.90;;
9783;SDS011;4931;44.874;-1.092;2022-11-20T07:22:59;10.77;;;2.88;;
9783;SDS011;4931;44.874;-1.092;2022-11-20T07:27:44;6.68;;;2.63;;
9783;SDS011;4931;44.874;-1.092;2022-11-20T07:32:32;10.07;;;2.55;;
9783;SDS011;4931;44.874;-1.092;2022-11-20T07:37:17;13.38;;;2.92;;
9783;SDS011;4931;44.874;-1.092;2022-11-20T07:42:02;10.20;;;3.95;;
9783;SDS011;4931;44.874;-1.092;2022-11-20T07:46:48;13.38;;;6.32;;
9783;SDS011;4931;44.874;-1.092;2022-11-20T07:51:35;10.73;;;4.93;;
9783;SDS011;4931;44.874;-1.092;2022-11-20T07:56:20;16.25;;;5.45;;
9783;SDS011;4931;44.874;-1.092;2022-11-20T08:01:06;10.80;;;3.35;;
9783;SDS011;4931;44.874;-1.092;2022-11-20T08:05:52;11.43;;;3.20;;
9783;SDS011;4931;44.874;-1.092;2022-11-20T08:10:40;5.75;;;3.00;;
9783;SDS011;4931;44.874;-1.092;2022-11-20T08:15:25;8.20;;;3.38;;
9783;SDS011;4931;44.874;-1.092;2022-11-20T08:20:10;6.97;;;2.70;;
9783;SDS011;4931;44.874;-1.092;2022-11-20T08:24:55;6.05;;;1.98;;
9783;SDS011;4931;44.874;-1.092;2022-11-20T08:29:43;5.80;;;2.10;;
9783;SDS011;4931;44.874;-1.092;2022-11-20T08:34:28;4.88;;;2.25;;
9783;SDS011;4931;44.874;-1.092;2022-11-20T08:39:13;3.92;;;1.98;;
9783;SDS011;4931;44.874;-1.092;2022-11-20T08:43:59;14.77;;;7.93;;
9783;SDS011;4931;44.874;-1.092;2022-11-20T08:48:48;10.23;;;4.68;;
9783;SDS011;4931;44.874;-1.092;2022-11-20T08:53:33;36.40;;;14.88;;
9783;SDS011;4931;44.874;-1.092;2022-11-20T08:58:19;10.75;;;6.07;;
9783;SDS011;4931;44.874;-1.092;2022-11-20T09:03:04;2.40;;;1.42;;
9783;SDS011;4931;44.874;-1.092;2022-11-20T09:07:55;7.78;;;5.82;;
9783;SDS011;4931;44.874;-1.092;2022-11-20T09:12:40;8.60;;;5.93;;
9783;SDS011;4931;44.874;-1.092;2022-11-20T09:17:26;15.48;;;11.90;;
9783;SDS011;4931;44.874;-1.092;2022-11-20T09:22:11;12.40;;;8.40;;
9783;SDS011;4931;44.874;-1.092;2022-11-20T09:26:59;14.23;;;10.70;;
9783;SDS011;4931;44.874;-1.092;2022-11-20T09:31:46;11.48;;;5.60;;
9783;SDS011;4931;44.874;-1.092;2022-11-20T09:36:31;35.35;;;13.30;;
9783;SDS011;4931;44.874;-1.092;2022-11-20T09:41:23;24.35;;;5.35;;
9783;SDS011;4931;44.874;-1.092;2022-11-20T09:46:25;14.60;;;2.92;;
9783;SDS011;4931;44.874;-1.092;2022-11-20T09:51:21;15.95;;;3.20;;
9783;SDS011;4931;44.874;-1.092;2022-11-20T09:56:16;20.90;;;8.27;;
9783;SDS011;4931;44.874;-1.092;2022-11-20T10:01:06;20.65;;;5.75;;
9783;SDS011;4931;44.874;-1.092;2022-11-20T10:05:58;27.15;;;9.02;;
9783;SDS011;4931;44.874;-1.092;2022-11-20T10:10:47;29.00;;;4.63;;
9783;SDS011;4931;44.874;-1.092;2022-11-20T10:15:38;32.25;;;4.85;;
9783;SDS011;4931;44.874;-1.092;2022-11-20T10:20:37;50.78;;;5.50;;
9783;SDS011;4931;44.874;-1.092;2022-11-20T10:25:33;42.40;;;5.05;;
9783;SDS011;4931;44.874;-1.092;2022-11-20T10:30:23;46.38;;;5.15;;
9783;SDS011;4931;44.874;-1.092;2022-11-20T10:35:14;52.17;;;6.15;;
9783;SDS011;4931;44.874;-1.092;2022-11-20T10:40:05;46.17;;;5.22;;
9783;SDS011;4931;44.874;-1.092;2022-11-20T10:45:13;46.33;;;5.50;;
9783;SDS011;4931;44.874;-1.092;2022-11-20T10:50:05;39.35;;;4.82;;
9783;SDS011;4931;44.874;-1.092;2022-11-20T10:55:06;41.55;;;5.15;;
9783;SDS011;4931;44.874;-1.092;2022-11-20T11:00:13;41.42;;;5.30;;
9783;SDS011;4931;44.874;-1.092;2022-11-20T11:04:58;44.13;;;5.20;;
9783;SDS011;4931;44.874;-1.092;2022-11-20T11:09:55;41.08;;;4.88;;
9783;SDS011;4931;44.874;-1.092;2022-11-20T11:14:42;38.17;;;4.70;;
9783;SDS011;4931;44.874;-1.092;2022-11-20T11:19:34;36.08;;;4.80;;
9783;SDS011;4931;44.874;-1.092;2022-11-20T11:24:20;27.98;;;4.20;;
9783;SDS011;4931;44.874;-1.092;2022-11-20T11:29:24;32.17;;;3.42;;
9783;SDS011;4931;44.874;-1.092;2022-11-20T11:34:12;33.28;;;4.03;;
9783;SDS011;4931;44.874;-1.092;2022-11-20T11:39:02;23.67;;;4.43;;
9783;SDS011;4931;44.874;-1.092;2022-11-20T11:43:51;36.13;;;4.05;;
9783;SDS011;4931;44.874;-1.092;2022-11-20T11:48:54;25.70;;;3.10;;
9783;SDS011;4931;44.874;-1.092;2022-11-20T11:53:41;29.75;;;4.18;;
9783;SDS011;4931;44.874;-1.092;2022-11-20T11:58:34;23.98;;;3.88;;
9783;SDS011;4931;44.874;-1.092;2022-11-20T12:03:27;35.10;;;3.60;;
9783;SDS011;4931;44.874;-1.092;2022-11-20T12:08:21;25.65;;;3.58;;
9783;SDS011;4931;44.874;-1.092;2022-11-20T12:13:14;25.90;;;3.25;;
9783;SDS011;4931;44.874;-1.092;2022-11-20T12:18:10;31.17;;;3.60;;
9783;SDS011;4931;44.874;-1.092;2022-11-20T12:23:01;24.65;;;3.17;;
9783;SDS011;4931;44.874;-1.092;2022-11-20T12:28:09;26.67;;;3.10;;
9783;SDS011;4931;44.874;-1.092;2022-11-20T12:33:15;26.65;;;3.05;;
9783;SDS011;4931;44.874;-1.092;2022-11-20T12:38:22;20.25;;;2.75;;
9783;SDS011;4931;44.874;-1.092;2022-11-20T12:43:17;17.73;;;3.03;;
9783;SDS011;4931;44.874;-1.092;2022-11-20T12:48:27;21.33;;;2.72;;
9783;SDS011;4931;44.874;-1.092;2022-11-20T12:53:29;13.57;;;2.25;;
9783;SDS011;4931;44.874;-1.092;2022-11-20T12:58:23;22.83;;;2.65;;
9783;SDS011;4931;44.874;-1.092;2022-11-20T13:08:37;20.15;;;2.78;;
9783;SDS011;4931;44.874;-1.092;2022-11-20T13:13:27;21.02;;;2.78;;
9783;SDS011;4931;44.874;-1.092;2022-11-20T13:18:16;20.40;;;2.90;;
9783;SDS011;4931;44.874;-1.092;2022-11-20T13:23:05;23.83;;;3.15;;
9783;SDS011;4931;44.874;-1.092;2022-11-20T13:27:53;23.80;;;3.63;;
9783;SDS011;4931;44.874;-1.092;2022-11-20T13:32:47;26.13;;;2.85;;
9783;SDS011;4931;44.874;-1.092;2022-11-20T13:37:34;17.10;;;2.65;;
9783;SDS011;4931;44.874;-1.092;2022-11-20T13:42:25;17.77;;;3.03;;
9783;SDS011;4931;44.874;-1.092;2022-11-20T13:47:19;13.20;;;2.10;;
9783;SDS011;4931;44.874;-1.092;2022-11-20T13:52:20;25.25;;;3.10;;
9783;SDS011;4931;44.874;-1.092;2022-11-20T13:57:37;23.95;;;2.53;;
9783;SDS011;4931;44.874;-1.092;2022-11-20T14:02:32;22.10;;;2.80;;
9783;SDS011;4931;44.874;-1.092;2022-11-20T14:07:17;19.50;;;2.47;;
9783;SDS011;4931;44.874;-1.092;2022-11-20T14:12:14;18.33;;;2.70;;
9783;SDS011;4931;44.874;-1.092;2022-11-20T14:17:08;16.33;;;2.90;;
9783;SDS011;4931;44.874;-1.092;2022-11-20T14:22:08;15.32;;;2.42;;
9783;SDS011;4931;44.874;-1.092;2022-11-20T14:27:01;22.02;;;2.83;;
9783;SDS011;4931;44.874;-1.092;2022-11-20T14:31:48;24.52;;;3.55;;
9783;SDS011;4931;44.874;-1.092;2022-11-20T14:36:39;24.92;;;3.10;;
9783;SDS011;4931;44.874;-1.092;2022-11-20T14:41:27;24.42;;;3.42;;
9783;SDS011;4931;44.874;-1.092;2022-11-20T14:46:13;22.27;;;2.97;;
9783;SDS011;4931;44.874;-1.092;2022-11-20T14:51:00;25.52;;;3.63;;
9783;SDS011;4931;44.874;-1.092;2022-11-20T14:55:53;27.38;;;3.50;;
9783;SDS011;4931;44.874;-1.092;2022-11-20T15:00:40;22.05;;;3.53;;
9783;SDS011;4931;44.874;-1.092;2022-11-20T15:05:26;25.50;;;4.85;;
9783;SDS011;4931;44.874;-1.092;2022-11-20T15:10:30;28.80;;;3.72;;
9783;SDS011;4931;44.874;-1.092;2022-11-20T15:15:19;26.85;;;3.63;;
9783;SDS011;4931;44.874;-1.092;2022-11-20T15:20:09;25.35;;;3.70;;
9783;SDS011;4931;44.874;-1.092;2022-11-20T15:24:57;28.10;;;3.97;;
9783;SDS011;4931;44.874;-1.092;2022-11-20T15:29:43;25.40;;;4.28;;
9783;SDS011;4931;44.874;-1.092;2022-11-20T15:34:31;34.17;;;4.65;;
9783;SDS011;4931;44.874;-1.092;2022-11-20T15:39:16;25.40;;;4.07;;
9783;SDS011;4931;44.874;-1.092;2022-11-20T15:44:01;32.38;;;4.85;;
9783;SDS011;4931;44.874;-1.092;2022-11-20T15:48:48;27.55;;;4.28;;
9783;SDS011;4931;44.874;-1.092;2022-11-20T15:53:41;30.67;;;4.93;;
9783;SDS011;4931;44.874;-1.092;2022-11-20T15:58:26;39.63;;;5.63;;
9783;SDS011;4931;44.874;-1.092;2022-11-20T16:03:12;35.85;;;6.78;;
9783;SDS011;4931;44.874;-1.092;2022-11-20T16:07:58;46.63;;;6.15;;
9783;SDS011;4931;44.874;-1.092;2022-11-20T16:12:51;34.30;;;6.05;;
9783;SDS011;4931;44.874;-1.092;2022-11-20T16:17:49;37.80;;;8.95;;
9783;SDS011;4931;44.874;-1.092;2022-11-20T16:22:34;60.78;;;19.13;;
9783;SDS011;4931;44.874;-1.092;2022-11-20T16:27:19;56.20;;;18.45;;
9783;SDS011;4931;44.874;-1.092;2022-11-20T16:32:07;52.45;;;15.57;;
9783;SDS011;4931;44.874;-1.092;2022-11-20T16:36:54;45.25;;;8.70;;
9783;SDS011;4931;44.874;-1.092;2022-11-20T16:41:39;38.20;;;8.73;;
9783;SDS011;4931;44.874;-1.092;2022-11-20T16:46:25;32.63;;;8.43;;
9783;SDS011;4931;44.874;-1.092;2022-11-20T16:51:15;34.80;;;8.00;;
9783;SDS011;4931;44.874;-1.092;2022-11-20T16:56:07;29.80;;;7.38;;
9783;SDS011;4931;44.874;-1.092;2022-11-20T17:00:54;38.97;;;8.07;;
9783;SDS011;4931;44.874;-1.092;2022-11-20T17:05:40;50.35;;;13.98;;
9783;SDS011;4931;44.874;-1.092;2022-11-20T17:10:28;70.47;;;25.52;;
9783;SDS011;4931;44.874;-1.092;2022-11-20T17:15:13;64.18;;;25.98;;
9783;SDS011;4931;44.874;-1.092;2022-11-20T17:19:58;74.82;;;30.35;;
9783;SDS011;4931;44.874;-1.092;2022-11-20T17:24:43;61.15;;;25.77;;
9783;SDS011;4931;44.874;-1.092;2022-11-20T17:29:31;66.28;;;26.90;;
9783;SDS011;4931;44.874;-1.092;2022-11-20T17:34:22;52.13;;;22.05;;
9783;SDS011;4931;44.874;-1.092;2022-11-20T17:39:08;53.35;;;19.38;;
9783;SDS011;4931;44.874;-1.092;2022-11-20T17:43:54;52.13;;;18.30;;
9783;SDS011;4931;44.874;-1.092;2022-11-20T17:48:44;52.63;;;18.58;;
9783;SDS011;4931;44.874;-1.092;2022-11-20T17:53:31;49.72;;;20.48;;
9783;SDS011;4931;44.874;-1.092;2022-11-20T17:58:19;56.28;;;23.65;;
9783;SDS011;4931;44.874;-1.092;2022-11-20T18:03:04;66.30;;;26.45;;
9783;SDS011;4931;44.874;-1.092;2022-11-20T18:07:53;65.82;;;25.90;;
9783;SDS011;4931;44.874;-1.092;2022-11-20T18:12:39;82.03;;;33.47;;
9783;SDS011;4931;44.874;-1.092;2022-11-20T18:17:24;82.30;;;40.90;;
9783;SDS011;4931;44.874;-1.092;2022-11-20T18:22:10;99.88;;;47.97;;
9783;SDS011;4931;44.874;-1.092;2022-11-20T18:26:58;148.90;;;71.03;;
9783;SDS011;4931;44.874;-1.092;2022-11-20T18:31:44;157.00;;;71.95;;
9783;SDS011;4931;44.874;-1.092;2022-11-20T18:36:29;128.75;;;63.97;;
9783;SDS011;4931;44.874;-1.092;2022-11-20T18:41:16;147.60;;;86.82;;
9783;SDS011;4931;44.874;-1.092;2022-11-20T18:46:17;120.70;;;75.78;;
9783;SDS011;4931;44.874;-1.092;2022-11-20T18:51:03;97.28;;;58.30;;
9783;SDS011;4931;44.874;-1.092;2022-11-20T18:55:49;76.40;;;45.20;;
9783;SDS011;4931;44.874;-1.092;2022-11-20T19:00:34;81.88;;;39.40;;
9783;SDS011;4931;44.874;-1.092;2022-11-20T19:05:22;54.75;;;25.48;;
9783;SDS011;4931;44.874;-1.092;2022-11-20T19:10:08;64.43;;;24.08;;
9783;SDS011;4931;44.874;-1.092;2022-11-20T19:14:53;63.05;;;27.15;;
9783;SDS011;4931;44.874;-1.092;2022-11-20T19:19:38;69.18;;;31.63;;
9783;SDS011;4931;44.874;-1.092;2022-11-20T19:24:26;110.80;;;49.63;;
9783;SDS011;4931;44.874;-1.092;2022-11-20T19:29:12;93.60;;;43.95;;
9783;SDS011;4931;44.874;-1.092;2022-11-20T19:33:59;91.65;;;43.60;;
9783;SDS011;4931;44.874;-1.092;2022-11-20T19:38:45;71.40;;;36.13;;
9783;SDS011;4931;44.874;-1.092;2022-11-20T19:43:35;87.53;;;38.95;;
9783;SDS011;4931;44.874;-1.092;2022-11-20T19:48:20;81.65;;;31.42;;
9783;SDS011;4931;44.874;-1.092;2022-11-20T19:53:05;77.80;;;33.42;;
9783;SDS011;4931;44.874;-1.092;2022-11-20T19:57:52;77.25;;;35.53;;
9783;SDS011;4931;44.874;-1.092;2022-11-20T20:02:40;66.05;;;32.63;;
9783;SDS011;4931;44.874;-1.092;2022-11-20T20:07:25;60.25;;;32.63;;
9783;SDS011;4931;44.874;-1.092;2022-11-20T20:12:10;69.00;;;34.10;;
9783;SDS011;4931;44.874;-1.092;2022-11-20T20:16:55;61.17;;;30.20;;
9783;SDS011;4931;44.874;-1.092;2022-11-20T20:21:43;63.20;;;29.83;;
9783;SDS011;4931;44.874;-1.092;2022-11-20T20:26:29;62.08;;;30.83;;
9783;SDS011;4931;44.874;-1.092;2022-11-20T20:31:15;65.78;;;30.00;;
9783;SDS011;4931;44.874;-1.092;2022-11-20T20:36:02;67.45;;;31.88;;
9783;SDS011;4931;44.874;-1.092;2022-11-20T20:40:50;66.57;;;32.35;;
9783;SDS011;4931;44.874;-1.092;2022-11-20T20:45:35;60.33;;;30.83;;
9783;SDS011;4931;44.874;-1.092;2022-11-20T20:50:21;79.47;;;36.63;;
9783;SDS011;4931;44.874;-1.092;2022-11-20T20:55:06;59.58;;;27.33;;
9783;SDS011;4931;44.874;-1.092;2022-11-20T20:59:55;45.25;;;21.33;;
9783;SDS011;4931;44.874;-1.092;2022-11-20T21:04:40;55.13;;;24.70;;
9783;SDS011;4931;44.874;-1.092;2022-11-20T21:09:25;92.18;;;44.25;;
9783;SDS011;4931;44.874;-1.092;2022-11-20T21:14:10;100.15;;;47.95;;
9783;SDS011;4931;44.874;-1.092;2022-11-20T21:18:58;78.72;;;37.83;;
9783;SDS011;4931;44.874;-1.092;2022-11-20T21:23:44;70.32;;;31.25;;
9783;SDS011;4931;44.874;-1.092;2022-11-20T21:28:30;66.50;;;30.45;;
9783;SDS011;4931;44.874;-1.092;2022-11-20T21:33:15;54.05;;;22.85;;
9783;SDS011;4931;44.874;-1.092;2022-11-20T21:38:03;53.50;;;21.27;;
9783;SDS011;4931;44.874;-1.092;2022-11-20T21:42:48;31.50;;;11.95;;
9783;SDS011;4931;44.874;-1.092;2022-11-20T21:47:34;33.65;;;9.43;;
9783;SDS011;4931;44.874;-1.092;2022-11-20T21:52:19;39.10;;;15.65;;
9783;SDS011;4931;44.874;-1.092;2022-11-20T21:57:07;30.90;;;11.52;;
9783;SDS011;4931;44.874;-1.092;2022-11-20T22:01:52;30.83;;;9.07;;
9783;SDS011;4931;44.874;-1.092;2022-11-20T22:06:37;38.35;;;12.82;;
9783;SDS011;4931;44.874;-1.092;2022-11-20T22:11:22;39.63;;;11.77;;
9783;SDS011;4931;44.874;-1.092;2022-11-20T22:16:10;31.83;;;11.13;;
9783;SDS011;4931;44.874;-1.092;2022-11-20T22:20:56;42.08;;;13.82;;
9783;SDS011;4931;44.874;-1.092;2022-11-20T22:25:46;68.63;;;29.67;;
9783;SDS011;4931;44.874;-1.092;2022-11-20T22:30:31;56.78;;;24.00;;
9783;SDS011;4931;44.874;-1.092;2022-11-20T22:35:19;52.70;;;20.58;;
9783;SDS011;4931;44.874;-1.092;2022-11-20T22:40:04;55.17;;;17.35;;
9783;SDS011;4931;44.874;-1.092;2022-11-20T22:44:51;48.35;;;14.50;;
9783;SDS011;4931;44.874;-1.092;2022-11-20T22:49:36;32.10;;;11.73;;
9783;SDS011;4931;44.874;-1.092;2022-11-20T22:54:24;53.47;;;18.42;;
9783;SDS011;4931;44.874;-1.092;2022-11-20T22:59:09;70.18;;;25.80;;
9783;SDS011;4931;44.874;-1.092;2022-11-20T23:03:55;44.35;;;14.65;;
9783;SDS011;4931;44.874;-1.092;2022-11-20T23:08:41;46.13;;;13.40;;
9783;SDS011;4931;44.874;-1.092;2022-11-20T23:13:29;65.28;;;24.38;;
9783;SDS011;4931;44.874;-1.092;2022-11-20T23:18:18;49.35;;;17.67;;
9783;SDS011;4931;44.874;-1.092;2022-11-20T23:23:03;40.92;;;11.43;;
9783;SDS011;4931;44.874;-1.092;2022-11-20T23:27:49;43.40;;;11.40;;
9783;SDS011;4931;44.874;-1.092;2022-11-20T23:32:36;55.58;;;12.40;;
9783;SDS011;4931;44.874;-1.092;2022-11-20T23:37:22;41.13;;;12.40;;
9783;SDS011;4931;44.874;-1.092;2022-11-20T23:42:07;43.38;;;12.77;;
9783;SDS011;4931;44.874;-1.092;2022-11-20T23:46:52;41.45;;;11.27;;
9783;SDS011;4931;44.874;-1.092;2022-11-20T23:51:40;44.65;;;9.82;;
9783;SDS011;4931;44.874;-1.092;2022-11-20T23:56:25;31.55;;;8.57;;
